Silvana, Washington
Current Conditions -  °F | °C
As of 5:35 PM on Sunday 23 Nov 2014 (Local Time) from KAWO Reporting Station
Clear Clear  
Wind Chill: 44°   Ceiling: Unl
Heat Index: 46°   Visibility: 10mi
Dew Point: 37°   Wind: 5mph
Humidity: 71%   Direction: 50°NE
Pressure: 30.22"   Gusts: NA
Location:  48.2°N, 122.25°W
Report Text: KAWO 240135Z AUTO 05004KT 10SM CLR 08/03 A3022 RMK AO1
Loading
Personal Weather Stations






























Interactive Weather Map New forecast layout! Learn more

10-Day Weather Forecast

Advertisements
Track Severe Weather on mobile